Details From ENGM - Oslo Gardermoen
To ESGG - Goteborg Landvetter
Flight Number -
Tags Generated
Created
Modified
Stats Distance 156 nm / 289 km
Max Altitude 0 ft / 0 m
Waypoints 2
Social Downloads 3
Likes 0
Share VATSIM

Download

Looking for another format? Having issues loading an existing format? Contact us
Advertisement - Login to hide

Notes

Generated

Route

ENGM ESGG

ID Type Via Altitude Latitude Longitude Leg Dist Tot Dist Heading (true) Name
O ENGM APT - 0 ft / 0 m 60.17576˚ 11.10778˚ - 0 nm - -
O ESGG APT - 0 ft / 0 m 57.64952˚ 12.26771˚ 155 nm 155 nm 166° / 167° -

Altitude Profile

Advertisement - Login to hide

ENGM

Details ICAO ENGM (OSL)
Name Oslo Gardermoen
Region Norway
Timezone Europe/Oslo (UTC+1.0)
Stats Elevation 681 ft / 208 m (AMSL)
Location 60.194507° 11.098998°
Runways 2
Magnetic Variation 3.383° E

METAR

ENGM 111720Z 03004KT 9999 SCT009 OVC012 M03/M05 Q0996 TEMPO BKN009

Decode

TAF

TAF TAF AMD ENGM 1116/1212 03007KT 9999 OVC009 TEMPO 1116/1120 SCT010 BKN020 BECMG 1120/1122 SCT020

Decode

Departure Runways

ID Width Length Bearing (true) Bearing (mag) Surface Threshold Offset Overrun Length
01L 148 ft / 45 m 12,144 ft / 3,702 m 15.89° 12.51° Concrete 0 ft / 0 m 499 ft / 152 m
01R 148 ft / 45 m 10,014 ft / 3,052 m 15.89° 12.51° Concrete 0 ft / 0 m 499 ft / 152 m
19L 148 ft / 45 m 10,014 ft / 3,052 m 195.91° 192.53° Concrete 0 ft / 0 m 466 ft / 142 m
19R 148 ft / 45 m 12,144 ft / 3,702 m 195.91° 192.53° Concrete 0 ft / 0 m 482 ft / 147 m

ESGG

Details ICAO ESGG (GOT)
Name Goteborg Landvetter
Region Sweden
Timezone Europe/Stockholm (UTC+1.0)
Stats Elevation 506 ft / 154 m (AMSL)
Location 57.662836° 12.279819°
Runways 1
Magnetic Variation 3.714° E

METAR

ESGG 111720Z 03011KT 8000 -SN BKN006 M02/M02 Q0989 R03/71//95

Decode

TAF

TAF TAF ESGG 111130Z 1112/1212 05007KT 9999 SCT040 TEMPO 1112/1117 2000 SN BKN009 BECMG 1117/1119 4000 -SN BKN013 TEMPO 1119/1208 0700 SN VV004 BECMG 1205/1207 CAVOK BECMG 1208/1210 35010KT

Decode

Destination Runways

ID Width Length Bearing (true) Bearing (mag) Surface Threshold Offset Overrun Length
03 148 ft / 45 m 10,804 ft / 3,293 m 25.94° 22.23° Asphalt 0 ft / 0 m 207 ft / 63 m
21 148 ft / 45 m 10,804 ft / 3,293 m 205.96° 202.25° Asphalt 0 ft / 0 m 207 ft / 63 m

Approach Navaids

Runway Type Ident Frequency Range Bearing (true) Bearing (mag) Slope Elevation
03 Localiser SSG 110.30 MHz 18 nm / 33 km 25.98° 22.26° - 506 ft / 154 m (AMSL)
03 Glidescope SSG 110.30 MHz 10 nm / 19 km 25.95° 22.24° 3.00° 506 ft / 154 m (AMSL)
21 Localiser NGG 108.50 MHz 18 nm / 33 km 205.92° 202.21° - 506 ft / 154 m (AMSL)
21 Glidescope NGG 108.50 MHz 10 nm / 19 km 205.95° 202.24° 3.00° 506 ft / 154 m (AMSL)

Popular Alternatives